createdAt,value
2018-11-05T00:01:41.707Z,10.10
2018-11-05T00:04:12.652Z,10.10
2018-11-05T00:06:44.086Z,10.00
2018-11-05T00:09:15.497Z,10.00
2018-11-05T00:11:44.666Z,9.90
2018-11-05T00:14:13.903Z,9.80
2018-11-05T00:16:42.974Z,9.80
2018-11-05T00:19:11.941Z,9.70
2018-11-05T00:21:41.008Z,9.70
2018-11-05T00:24:09.985Z,9.60
2018-11-05T00:26:39.042Z,9.50
2018-11-05T00:29:08.298Z,9.50
2018-11-05T00:31:37.402Z,9.50
2018-11-05T00:34:06.682Z,9.50
2018-11-05T00:36:35.801Z,9.50
2018-11-05T00:39:06.477Z,9.50
2018-11-05T00:41:35.563Z,9.40
2018-11-05T00:44:04.662Z,9.30
2018-11-05T00:46:33.740Z,9.30
2018-11-05T00:49:02.788Z,9.30
2018-11-05T00:51:31.800Z,9.20
2018-11-05T00:54:00.906Z,9.20
2018-11-05T00:56:29.896Z,9.10
2018-11-05T00:58:58.947Z,9.20
2018-11-05T01:01:28.391Z,9.10
2018-11-05T01:03:57.690Z,9.10
2018-11-05T01:06:26.801Z,9.00
2018-11-05T01:08:55.820Z,8.90
2018-11-05T01:11:27.004Z,8.80
2018-11-05T01:13:56.044Z,8.80
2018-11-05T01:16:25.054Z,8.80
2018-11-05T01:18:54.323Z,8.70
2018-11-05T01:21:23.367Z,8.70
2018-11-05T01:23:52.417Z,8.70
2018-11-05T01:26:21.458Z,8.50
2018-11-05T01:28:50.573Z,8.50
2018-11-05T01:31:19.558Z,8.50
2018-11-05T01:33:48.591Z,8.50
2018-11-05T01:36:17.671Z,8.40
2018-11-05T01:38:46.712Z,8.40
2018-11-05T01:41:15.733Z,8.40
2018-11-05T01:43:44.705Z,8.40
2018-11-05T01:46:13.926Z,8.40
2018-11-05T01:48:43.020Z,8.30
2018-11-05T01:51:11.998Z,8.10
2018-11-05T01:53:40.986Z,8.10
2018-11-05T01:56:10.068Z,8.10
2018-11-05T01:58:39.116Z,8.00
2018-11-05T02:01:08.124Z,7.90
2018-11-05T02:03:37.205Z,7.80
2018-11-05T02:06:06.430Z,7.80
2018-11-05T02:08:35.476Z,7.80
2018-11-05T02:11:04.520Z,7.80
2018-11-05T02:13:33.601Z,7.70
2018-11-05T02:16:02.495Z,7.70
2018-11-05T02:18:31.519Z,7.70
2018-11-05T02:21:00.619Z,7.60
2018-11-05T02:23:29.702Z,7.50
2018-11-05T02:25:58.758Z,7.50
2018-11-05T02:28:27.858Z,7.50
2018-11-05T02:30:56.896Z,7.50
2018-11-05T02:33:25.880Z,7.50
2018-11-05T02:35:55.049Z,7.50
2018-11-05T02:38:24.039Z,7.50
2018-11-05T02:40:53.351Z,7.40
2018-11-05T02:43:22.547Z,7.40
2018-11-05T02:45:51.602Z,7.40
2018-11-05T02:48:20.601Z,7.40
2018-11-05T02:50:49.644Z,7.50
2018-11-05T02:53:18.580Z,7.50
2018-11-05T02:55:47.603Z,7.40
2018-11-05T02:58:16.802Z,7.40
2018-11-05T03:00:45.887Z,7.30
2018-11-05T03:03:15.272Z,7.30
2018-11-05T03:05:44.245Z,7.30
2018-11-05T03:08:13.263Z,7.30
2018-11-05T03:10:42.480Z,7.50
2018-11-05T03:13:11.449Z,7.70
2018-11-05T03:15:40.644Z,7.80
2018-11-05T03:18:09.674Z,7.80
2018-11-05T03:20:38.697Z,7.90
2018-11-05T03:23:07.720Z,8.10
2018-11-05T03:25:36.832Z,8.20
2018-11-05T03:28:05.882Z,8.40
2018-11-05T03:30:34.909Z,8.60
2018-11-05T03:33:04.014Z,8.70
2018-11-05T03:35:33.079Z,8.90
2018-11-05T03:38:02.055Z,8.90
2018-11-05T03:40:31.069Z,9.00
2018-11-05T03:43:00.118Z,9.10
2018-11-05T03:45:29.111Z,9.00
2018-11-05T03:47:58.157Z,9.10
2018-11-05T03:50:27.403Z,9.10
2018-11-05T03:52:56.463Z,9.10
2018-11-05T03:55:25.715Z,9.20
2018-11-05T03:57:54.832Z,9.20
2018-11-05T04:00:24.171Z,9.20
2018-11-05T04:02:53.639Z,9.30
2018-11-05T04:05:22.758Z,9.30
2018-11-05T04:07:51.981Z,9.40
2018-11-05T04:10:21.192Z,9.40
2018-11-05T04:12:50.292Z,9.50
2018-11-05T04:15:19.546Z,9.50
2018-11-05T04:17:48.580Z,9.50
2018-11-05T04:20:17.555Z,9.60
2018-11-05T04:22:46.699Z,9.60
2018-11-05T04:25:15.937Z,9.60
2018-11-05T04:27:45.003Z,9.60
2018-11-05T04:30:14.995Z,9.70
2018-11-05T04:32:44.463Z,9.70
2018-11-05T04:35:13.642Z,9.70
2018-11-05T04:37:43.457Z,9.80
2018-11-05T04:40:12.651Z,9.80
2018-11-05T04:42:41.810Z,9.80
2018-11-05T04:45:13.140Z,9.90
2018-11-05T04:47:42.832Z,10.00
2018-11-05T04:50:12.951Z,10.00
2018-11-05T04:52:42.682Z,9.90
2018-11-05T04:55:11.675Z,9.80
2018-11-05T04:57:40.753Z,9.70
2018-11-05T05:00:13.460Z,9.70
2018-11-05T05:02:46.465Z,9.80
2018-11-05T05:05:21.822Z,9.80
2018-11-05T05:07:59.390Z,9.80
2018-11-05T05:10:47.202Z,9.90
2018-11-05T05:13:21.526Z,10.00
2018-11-05T05:16:28.183Z,9.90
2018-11-05T05:18:58.082Z,9.90
2018-11-05T05:21:27.802Z,10.00
2018-11-05T05:23:57.521Z,10.00
2018-11-05T05:26:27.275Z,10.00
2018-11-05T05:29:00.170Z,10.00
2018-11-05T05:31:29.445Z,10.00
2018-11-05T05:33:59.630Z,9.90
2018-11-05T05:36:29.706Z,9.90
2018-11-05T05:39:01.394Z,10.00
2018-11-05T05:41:36.558Z,10.00
2018-11-05T05:44:06.090Z,10.00
2018-11-05T05:46:35.055Z,9.90
2018-11-05T05:49:04.153Z,10.00
2018-11-05T05:51:33.364Z,10.00
2018-11-05T05:54:02.510Z,10.00
2018-11-05T05:56:31.588Z,10.00
2018-11-05T05:59:01.105Z,10.00
2018-11-05T06:01:31.411Z,10.00
2018-11-05T06:04:00.817Z,10.00
2018-11-05T06:06:30.361Z,10.00
2018-11-05T06:09:06.447Z,10.10
2018-11-05T06:11:35.775Z,10.20
2018-11-05T06:14:05.696Z,10.10
2018-11-05T06:19:44.341Z,10.10
2018-11-05T06:22:14.005Z,10.10
2018-11-05T06:24:43.193Z,10.10
2018-11-05T06:27:12.191Z,10.10
2018-11-05T06:29:41.534Z,10.10
2018-11-05T06:32:10.937Z,10.20
2018-11-05T06:34:40.081Z,10.10
2018-11-05T06:37:09.096Z,10.20
2018-11-05T06:39:38.589Z,10.20
2018-11-05T06:42:07.523Z,10.30
2018-11-05T06:44:36.732Z,10.20
2018-11-05T06:47:05.782Z,10.20
2018-11-05T06:49:34.725Z,10.20
2018-11-05T06:52:03.618Z,10.20
2018-11-05T06:54:34.050Z,10.20
2018-11-05T06:57:02.994Z,10.20
2018-11-05T06:59:32.012Z,10.20
2018-11-05T07:02:01.316Z,10.30
2018-11-05T07:04:30.368Z,10.40
2018-11-05T07:06:59.331Z,10.40
2018-11-05T07:09:28.331Z,10.40
2018-11-05T07:11:57.313Z,10.40
2018-11-05T07:14:26.246Z,10.50
2018-11-05T07:17:01.464Z,10.50
2018-11-05T07:22:23.694Z,10.50
2018-11-05T07:25:00.658Z,10.50
2018-11-05T07:48:28.846Z,10.70
2018-11-05T07:50:58.002Z,10.70
2018-11-05T10:51:07.403Z,11.20
2018-11-05T10:53:53.565Z,11.90
2018-11-05T11:05:31.650Z,12.10
2018-11-05T11:11:01.736Z,12.20
2018-11-05T11:27:45.489Z,12.10
2018-11-05T12:04:47.401Z,11.90
2018-11-05T12:07:16.340Z,11.70
2018-11-05T12:09:45.222Z,11.80
2018-11-05T12:12:14.214Z,11.90
2018-11-05T12:14:43.265Z,11.80
2018-11-05T12:17:13.678Z,11.80
2018-11-05T12:19:42.822Z,11.80
2018-11-05T12:22:15.213Z,11.80
2018-11-05T12:25:01.292Z,12.00
2018-11-05T12:30:12.643Z,12.10
2018-11-05T12:32:56.494Z,12.10
2018-11-05T12:35:26.770Z,12.20
2018-11-05T12:37:56.021Z,12.20
2018-11-05T12:40:34.620Z,12.30
2018-11-05T12:43:03.855Z,12.40
2018-11-05T12:45:35.733Z,12.50
2018-11-05T12:48:05.928Z,12.50
2018-11-05T12:50:35.608Z,12.20
2018-11-05T12:53:04.901Z,12.10
2018-11-05T12:55:34.536Z,12.00
2018-11-05T12:58:04.066Z,12.00
2018-11-05T13:00:33.644Z,12.00
2018-11-05T13:03:03.294Z,12.00
2018-11-05T13:05:35.542Z,12.00
2018-11-05T13:08:05.153Z,12.10
2018-11-05T13:10:34.643Z,12.20
2018-11-05T13:13:04.165Z,12.40
2018-11-05T13:15:33.452Z,12.50
2018-11-05T13:18:02.610Z,12.20
2018-11-05T13:20:31.901Z,12.10
2018-11-05T13:23:01.158Z,12.10
2018-11-05T13:25:31.103Z,11.90
2018-11-05T13:28:00.637Z,12.00
2018-11-05T13:30:29.828Z,11.90
2018-11-05T13:32:58.981Z,12.00
2018-11-05T13:35:28.224Z,12.20
2018-11-05T13:38:02.329Z,12.20
2018-11-05T13:40:44.194Z,12.10
2018-11-05T13:43:15.371Z,12.10
2018-11-05T13:45:45.291Z,12.00
2018-11-05T13:48:14.442Z,12.00
2018-11-05T13:50:45.345Z,12.00
2018-11-05T13:53:22.633Z,12.20
2018-11-05T13:55:54.377Z,12.30
2018-11-05T13:58:33.144Z,12.20
2018-11-05T14:01:02.614Z,12.30
2018-11-05T14:03:32.152Z,12.20
2018-11-05T14:06:01.262Z,12.30
2018-11-05T14:08:30.962Z,12.30
2018-11-05T14:11:00.190Z,12.40
2018-11-05T14:13:29.287Z,12.50
2018-11-05T14:15:58.639Z,12.50
2018-11-05T14:18:27.833Z,12.30
2018-11-05T14:20:56.809Z,12.20
2018-11-05T14:23:25.858Z,12.30
2018-11-05T14:25:55.059Z,12.40
2018-11-05T14:28:25.951Z,12.40
2018-11-05T14:30:54.681Z,12.30
2018-11-05T14:33:23.701Z,12.30
2018-11-05T14:35:52.872Z,12.10
2018-11-05T14:38:21.894Z,12.30
2018-11-05T14:40:50.921Z,12.40
2018-11-05T14:43:20.077Z,12.50
2018-11-05T14:45:49.280Z,12.60
2018-11-05T14:48:19.761Z,12.60
2018-11-05T14:50:49.091Z,12.70
2018-11-05T14:53:18.234Z,12.70
2018-11-05T14:55:47.594Z,12.80
2018-11-05T14:58:16.681Z,12.80
2018-11-05T15:00:47.607Z,12.90
2018-11-05T15:03:16.735Z,12.50
2018-11-05T15:05:45.820Z,12.50
2018-11-05T15:08:15.010Z,12.60
2018-11-05T15:10:44.365Z,12.60
2018-11-05T15:13:15.308Z,12.70
2018-11-05T15:15:44.553Z,12.60
2018-11-05T15:18:14.181Z,12.60
2018-11-05T15:20:49.368Z,12.70
2018-11-05T15:23:18.445Z,12.70
2018-11-05T15:25:57.101Z,12.70
2018-11-05T15:28:26.383Z,12.70
2018-11-05T15:31:00.311Z,12.80
2018-11-05T15:33:30.142Z,12.90
2018-11-05T15:35:59.436Z,12.90
2018-11-05T15:38:29.752Z,12.80
2018-11-05T15:41:04.717Z,12.80
2018-11-05T15:43:59.757Z,12.80
2018-11-05T15:46:31.692Z,12.80
2018-11-05T15:49:01.766Z,12.80
2018-11-05T15:51:31.215Z,12.80
2018-11-05T15:54:00.349Z,12.80
2018-11-05T15:56:30.263Z,12.80
2018-11-05T15:58:59.662Z,12.80
2018-11-05T16:01:28.835Z,12.70
2018-11-05T16:03:58.378Z,12.70
2018-11-05T16:06:27.768Z,12.70
2018-11-05T16:08:57.069Z,12.70
2018-11-05T16:11:33.726Z,12.70
2018-11-05T16:14:03.096Z,12.80
2018-11-05T16:16:32.677Z,12.80
2018-11-05T16:19:17.042Z,12.80
2018-11-05T16:21:46.580Z,12.80
2018-11-05T16:24:15.655Z,12.70
2018-11-05T16:26:44.923Z,12.80
2018-11-05T16:29:21.174Z,12.70
2018-11-05T16:31:50.766Z,12.80
2018-11-05T16:34:20.237Z,12.80
2018-11-05T16:36:49.387Z,12.80
2018-11-05T16:39:18.607Z,12.80
2018-11-05T16:41:47.700Z,12.70
2018-11-05T16:44:18.312Z,12.70
2018-11-05T16:46:47.551Z,12.60
2018-11-05T16:49:19.520Z,12.60
2018-11-05T16:51:48.602Z,12.60
2018-11-05T16:54:17.654Z,12.60
2018-11-05T16:56:46.938Z,12.50
2018-11-05T16:59:37.191Z,12.50
2018-11-05T17:02:12.047Z,12.50
2018-11-05T17:04:59.335Z,12.40
2018-11-05T17:07:32.610Z,12.40
2018-11-05T17:10:03.448Z,12.30
2018-11-05T17:12:32.819Z,12.20
2018-11-05T17:15:03.974Z,12.20
2018-11-05T17:17:34.205Z,12.10
2018-11-05T17:20:04.009Z,12.10
2018-11-05T17:22:33.048Z,12.00
2018-11-05T17:25:02.112Z,11.90
2018-11-05T17:27:31.802Z,11.80
2018-11-05T17:30:00.865Z,11.80
2018-11-05T17:32:30.119Z,11.80
2018-11-05T17:35:01.234Z,11.70
2018-11-05T17:37:33.269Z,11.70
2018-11-05T17:40:02.602Z,11.60
2018-11-05T17:42:32.821Z,11.60
2018-11-05T17:45:03.409Z,11.60
2018-11-05T17:47:35.309Z,11.50
2018-11-05T17:50:07.231Z,11.50
2018-11-05T17:52:38.745Z,11.50
2018-11-05T17:55:13.530Z,11.40
2018-11-05T17:57:43.730Z,11.40
2018-11-05T18:00:17.886Z,11.40
2018-11-05T18:02:47.211Z,11.40
2018-11-05T18:05:19.581Z,11.40
2018-11-05T18:07:48.881Z,11.40
2018-11-05T18:10:20.105Z,11.30
2018-11-05T18:12:49.678Z,11.30
2018-11-05T18:15:19.351Z,11.20
2018-11-05T18:17:48.736Z,11.20
2018-11-05T18:20:18.696Z,11.20
2018-11-05T18:22:48.186Z,11.10
2018-11-05T18:25:18.714Z,11.10
2018-11-05T18:27:47.999Z,11.10
2018-11-05T18:30:18.736Z,11.00
2018-11-05T18:32:48.522Z,11.00
2018-11-05T18:35:17.819Z,11.00
2018-11-05T18:37:48.879Z,11.00
2018-11-05T18:40:53.591Z,11.10
2018-11-05T18:43:24.204Z,11.10
2018-11-05T18:45:53.308Z,11.00
2018-11-05T18:48:22.666Z,11.10
2018-11-05T18:50:55.144Z,11.10
2018-11-05T18:53:24.452Z,11.00
2018-11-05T18:55:54.514Z,11.00
2018-11-05T18:58:25.503Z,11.00
2018-11-05T19:00:56.227Z,11.00
2018-11-05T19:03:27.768Z,11.00
2018-11-05T19:05:57.412Z,11.10
2018-11-05T19:08:27.717Z,11.10
2018-11-05T19:11:00.426Z,11.10
2018-11-05T19:16:17.838Z,11.10
2018-11-05T19:18:51.770Z,11.00
2018-11-05T19:21:21.219Z,11.00
2018-11-05T19:23:52.519Z,11.10
2018-11-05T19:29:24.331Z,11.10
2018-11-05T19:31:54.582Z,11.10
2018-11-05T19:34:24.274Z,11.10
2018-11-05T19:36:53.915Z,11.00
2018-11-05T19:39:23.667Z,11.10
2018-11-05T19:41:53.294Z,11.00
2018-11-05T19:44:22.743Z,10.80
2018-11-05T19:46:51.942Z,10.90
2018-11-05T19:49:21.349Z,11.00
2018-11-05T19:51:50.607Z,11.00
2018-11-05T19:54:19.993Z,11.00
2018-11-05T19:56:49.864Z,10.90
2018-11-05T19:59:19.289Z,10.80
2018-11-05T20:01:48.488Z,10.70
2018-11-05T20:04:19.002Z,10.70
2018-11-05T20:06:49.370Z,10.70
2018-11-05T20:09:21.681Z,10.60
2018-11-05T20:11:51.924Z,10.20
2018-11-05T20:14:22.510Z,10.50
2018-11-05T20:16:51.740Z,10.60
2018-11-05T20:19:21.529Z,10.50
2018-11-05T20:21:53.700Z,10.60
2018-11-05T20:24:24.195Z,10.50
2018-11-05T20:26:56.950Z,10.50
2018-11-05T20:29:26.288Z,10.60
2018-11-05T20:31:56.712Z,10.60
2018-11-05T20:34:27.646Z,10.60
2018-11-05T20:36:57.015Z,11.30
2018-11-05T20:39:31.796Z,10.80
2018-11-05T20:42:01.321Z,10.70
2018-11-05T20:44:31.362Z,10.70
2018-11-05T20:47:00.497Z,10.70
2018-11-05T20:49:30.999Z,10.70
2018-11-05T20:52:02.176Z,10.60
2018-11-05T20:54:31.669Z,10.60
2018-11-05T20:57:00.807Z,10.70
2018-11-05T20:59:29.904Z,10.70
2018-11-05T21:01:58.956Z,10.60
2018-11-05T21:04:28.319Z,10.60
2018-11-05T21:06:58.937Z,10.70
2018-11-05T21:09:27.980Z,10.60
2018-11-05T21:11:57.064Z,10.50
2018-11-05T21:14:26.338Z,10.50
2018-11-05T21:16:56.275Z,10.40
2018-11-05T21:19:26.872Z,10.40
2018-11-05T21:21:56.117Z,10.50
2018-11-05T21:24:29.940Z,10.50
2018-11-05T21:26:59.976Z,10.30
2018-11-05T21:29:29.444Z,10.40
2018-11-05T21:31:58.434Z,10.40
2018-11-05T21:34:29.575Z,10.50
2018-11-05T21:36:59.367Z,10.50
2018-11-05T21:39:29.307Z,10.50
2018-11-05T21:41:58.873Z,10.50
2018-11-05T21:44:28.478Z,10.50
2018-11-05T21:46:57.879Z,10.30
2018-11-05T21:49:26.842Z,10.20
2018-11-05T21:51:55.987Z,10.20
2018-11-05T21:54:24.959Z,10.10
2018-11-05T21:56:54.164Z,10.10
2018-11-05T21:59:23.209Z,10.00
2018-11-05T22:01:53.276Z,10.00
2018-11-05T22:04:22.658Z,10.10
2018-11-05T22:06:51.733Z,10.10
2018-11-05T22:09:20.769Z,10.00
2018-11-05T22:11:49.844Z,9.90
2018-11-05T22:14:18.885Z,9.80
2018-11-05T22:16:48.338Z,9.80
2018-11-05T22:19:18.095Z,9.80
2018-11-05T22:21:47.202Z,9.90
2018-11-05T22:24:16.151Z,9.80
2018-11-05T22:26:45.169Z,9.70
2018-11-05T22:29:14.135Z,9.60
2018-11-05T22:31:43.173Z,9.30
2018-11-05T22:34:12.271Z,9.30
2018-11-05T22:36:41.309Z,9.10
2018-11-05T22:39:11.078Z,9.10
2018-11-05T22:41:40.193Z,9.10
2018-11-05T22:44:09.288Z,9.20
2018-11-05T22:46:38.388Z,9.40
2018-11-05T22:49:07.351Z,9.50
2018-11-05T22:51:36.517Z,9.40
2018-11-05T22:54:05.585Z,9.50
2018-11-05T22:56:34.578Z,9.40
2018-11-05T22:59:03.601Z,9.40
2018-11-05T23:01:38.303Z,9.40
2018-11-05T23:04:07.534Z,9.50
2018-11-05T23:06:36.726Z,9.50
2018-11-05T23:09:07.735Z,9.40
2018-11-05T23:11:36.887Z,9.30
2018-11-05T23:14:05.991Z,9.20
2018-11-05T23:16:35.047Z,9.20
2018-11-05T23:19:04.657Z,9.40
2018-11-05T23:21:33.835Z,9.40
2018-11-05T23:24:03.179Z,9.50
2018-11-05T23:26:32.555Z,9.50
2018-11-05T23:29:01.957Z,9.60
2018-11-05T23:31:30.999Z,9.60
2018-11-05T23:34:01.529Z,9.60
2018-11-05T23:36:30.676Z,9.70
2018-11-05T23:39:00.061Z,9.70
2018-11-05T23:41:29.521Z,9.70
2018-11-05T23:44:14.985Z,9.70
2018-11-05T23:46:44.628Z,9.80
2018-11-05T23:49:14.015Z,9.70
2018-11-05T23:51:43.492Z,9.80
2018-11-05T23:54:12.870Z,9.80
2018-11-05T23:56:42.120Z,9.80
2018-11-05T23:59:11.688Z,9.80
